sensor_id;sensor_type;location;lat;lon;timestamp;P1;durP1;ratioP1;P2;durP2;ratioP2
28529;SDS011;15737;49.760;6.632;2023-05-07T00:02:12;1.03;;;0.97;;
28529;SDS011;15737;49.760;6.632;2023-05-07T00:04:37;0.93;;;0.83;;
28529;SDS011;15737;49.760;6.632;2023-05-07T00:07:03;1.00;;;1.00;;
28529;SDS011;15737;49.760;6.632;2023-05-07T00:09:29;0.63;;;0.63;;
28529;SDS011;15737;49.760;6.632;2023-05-07T00:11:55;1.53;;;1.00;;
28529;SDS011;15737;49.760;6.632;2023-05-07T00:14:20;0.70;;;0.70;;
28529;SDS011;15737;49.760;6.632;2023-05-07T00:16:46;1.20;;;1.10;;
28529;SDS011;15737;49.760;6.632;2023-05-07T00:19:11;0.77;;;0.70;;
28529;SDS011;15737;49.760;6.632;2023-05-07T00:21:37;0.70;;;0.70;;
28529;SDS011;15737;49.760;6.632;2023-05-07T00:24:03;0.63;;;0.63;;
28529;SDS011;15737;49.760;6.632;2023-05-07T00:26:28;0.77;;;0.60;;
28529;SDS011;15737;49.760;6.632;2023-05-07T00:28:54;0.50;;;0.50;;
28529;SDS011;15737;49.760;6.632;2023-05-07T00:31:20;0.67;;;0.67;;
28529;SDS011;15737;49.760;6.632;2023-05-07T00:33:45;0.67;;;0.67;;
28529;SDS011;15737;49.760;6.632;2023-05-07T00:36:11;0.70;;;0.70;;
28529;SDS011;15737;49.760;6.632;2023-05-07T00:38:37;0.60;;;0.60;;
28529;SDS011;15737;49.760;6.632;2023-05-07T00:41:02;1.20;;;1.10;;
28529;SDS011;15737;49.760;6.632;2023-05-07T00:43:28;0.90;;;0.90;;
28529;SDS011;15737;49.760;6.632;2023-05-07T00:45:54;1.20;;;1.20;;
28529;SDS011;15737;49.760;6.632;2023-05-07T00:48:20;1.40;;;0.90;;
28529;SDS011;15737;49.760;6.632;2023-05-07T00:50:45;0.60;;;0.60;;
28529;SDS011;15737;49.760;6.632;2023-05-07T00:53:12;0.70;;;0.70;;
28529;SDS011;15737;49.760;6.632;2023-05-07T00:55:38;0.50;;;0.50;;
28529;SDS011;15737;49.760;6.632;2023-05-07T00:58:03;0.50;;;0.50;;
28529;SDS011;15737;49.760;6.632;2023-05-07T01:00:29;0.50;;;0.50;;
28529;SDS011;15737;49.760;6.632;2023-05-07T01:02:55;1.27;;;0.80;;
28529;SDS011;15737;49.760;6.632;2023-05-07T01:05:21;1.00;;;0.90;;
28529;SDS011;15737;49.760;6.632;2023-05-07T01:07:49;0.50;;;0.50;;
28529;SDS011;15737;49.760;6.632;2023-05-07T01:10:17;0.77;;;0.77;;
28529;SDS011;15737;49.760;6.632;2023-05-07T01:12:43;0.90;;;0.90;;
28529;SDS011;15737;49.760;6.632;2023-05-07T01:15:10;1.30;;;1.20;;
28529;SDS011;15737;49.760;6.632;2023-05-07T01:17:37;0.90;;;0.90;;
28529;SDS011;15737;49.760;6.632;2023-05-07T01:20:05;0.70;;;0.70;;
28529;SDS011;15737;49.760;6.632;2023-05-07T01:22:32;0.40;;;0.40;;
28529;SDS011;15737;49.760;6.632;2023-05-07T01:25:06;0.83;;;0.83;;
28529;SDS011;15737;49.760;6.632;2023-05-07T01:27:33;0.70;;;0.70;;
28529;SDS011;15737;49.760;6.632;2023-05-07T01:30:00;2.43;;;0.83;;
28529;SDS011;15737;49.760;6.632;2023-05-07T01:32:29;0.70;;;0.70;;
28529;SDS011;15737;49.760;6.632;2023-05-07T01:34:56;0.50;;;0.50;;
28529;SDS011;15737;49.760;6.632;2023-05-07T01:37:23;1.10;;;0.67;;
28529;SDS011;15737;49.760;6.632;2023-05-07T01:39:50;0.80;;;0.80;;
28529;SDS011;15737;49.760;6.632;2023-05-07T01:42:17;0.70;;;0.70;;
28529;SDS011;15737;49.760;6.632;2023-05-07T01:44:42;1.87;;;0.77;;
28529;SDS011;15737;49.760;6.632;2023-05-07T01:47:08;1.00;;;0.90;;
28529;SDS011;15737;49.760;6.632;2023-05-07T01:49:34;0.73;;;0.70;;
28529;SDS011;15737;49.760;6.632;2023-05-07T01:51:59;0.70;;;0.67;;
28529;SDS011;15737;49.760;6.632;2023-05-07T01:54:26;0.97;;;0.77;;
28529;SDS011;15737;49.760;6.632;2023-05-07T01:56:56;0.43;;;0.43;;
28529;SDS011;15737;49.760;6.632;2023-05-07T01:59:22;0.67;;;0.60;;
28529;SDS011;15737;49.760;6.632;2023-05-07T02:01:47;0.40;;;0.40;;
28529;SDS011;15737;49.760;6.632;2023-05-07T02:04:13;0.80;;;0.50;;
28529;SDS011;15737;49.760;6.632;2023-05-07T02:06:38;0.90;;;0.80;;
28529;SDS011;15737;49.760;6.632;2023-05-07T02:09:04;0.70;;;0.70;;
28529;SDS011;15737;49.760;6.632;2023-05-07T02:11:30;0.50;;;0.50;;
28529;SDS011;15737;49.760;6.632;2023-05-07T02:13:55;0.70;;;0.70;;
28529;SDS011;15737;49.760;6.632;2023-05-07T02:16:21;0.50;;;0.50;;
28529;SDS011;15737;49.760;6.632;2023-05-07T02:18:48;0.40;;;0.40;;
28529;SDS011;15737;49.760;6.632;2023-05-07T02:21:13;0.37;;;0.30;;
28529;SDS011;15737;49.760;6.632;2023-05-07T02:23:39;0.10;;;0.10;;
28529;SDS011;15737;49.760;6.632;2023-05-07T02:26:04;0.33;;;0.33;;
28529;SDS011;15737;49.760;6.632;2023-05-07T02:28:30;0.63;;;0.63;;
28529;SDS011;15737;49.760;6.632;2023-05-07T02:30:55;1.20;;;0.90;;
28529;SDS011;15737;49.760;6.632;2023-05-07T02:33:23;0.40;;;0.40;;
28529;SDS011;15737;49.760;6.632;2023-05-07T02:35:48;0.57;;;0.57;;
28529;SDS011;15737;49.760;6.632;2023-05-07T02:38:16;0.60;;;0.60;;
28529;SDS011;15737;49.760;6.632;2023-05-07T02:40:42;0.70;;;0.70;;
28529;SDS011;15737;49.760;6.632;2023-05-07T02:43:07;0.60;;;0.50;;
28529;SDS011;15737;49.760;6.632;2023-05-07T02:45:33;0.53;;;0.40;;
28529;SDS011;15737;49.760;6.632;2023-05-07T02:47:58;0.77;;;0.77;;
28529;SDS011;15737;49.760;6.632;2023-05-07T02:50:24;0.47;;;0.47;;
28529;SDS011;15737;49.760;6.632;2023-05-07T02:52:50;0.63;;;0.63;;
28529;SDS011;15737;49.760;6.632;2023-05-07T02:55:15;0.40;;;0.40;;
28529;SDS011;15737;49.760;6.632;2023-05-07T02:57:41;1.20;;;0.53;;
28529;SDS011;15737;49.760;6.632;2023-05-07T03:00:11;0.50;;;0.50;;
28529;SDS011;15737;49.760;6.632;2023-05-07T03:02:40;0.37;;;0.37;;
28529;SDS011;15737;49.760;6.632;2023-05-07T03:05:06;2.40;;;0.83;;
28529;SDS011;15737;49.760;6.632;2023-05-07T03:07:31;0.37;;;0.37;;
28529;SDS011;15737;49.760;6.632;2023-05-07T03:09:57;0.50;;;0.50;;
28529;SDS011;15737;49.760;6.632;2023-05-07T03:12:22;0.50;;;0.50;;
28529;SDS011;15737;49.760;6.632;2023-05-07T03:14:48;0.67;;;0.67;;
28529;SDS011;15737;49.760;6.632;2023-05-07T03:17:13;1.90;;;0.60;;
28529;SDS011;15737;49.760;6.632;2023-05-07T03:19:41;0.57;;;0.57;;
28529;SDS011;15737;49.760;6.632;2023-05-07T03:22:06;0.83;;;0.83;;
28529;SDS011;15737;49.760;6.632;2023-05-07T03:24:32;0.90;;;0.90;;
28529;SDS011;15737;49.760;6.632;2023-05-07T03:29:30;0.53;;;0.53;;
28529;SDS011;15737;49.760;6.632;2023-05-07T03:31:56;0.53;;;0.53;;
28529;SDS011;15737;49.760;6.632;2023-05-07T03:34:21;1.43;;;0.90;;
28529;SDS011;15737;49.760;6.632;2023-05-07T03:36:48;0.70;;;0.70;;
28529;SDS011;15737;49.760;6.632;2023-05-07T03:39:14;0.50;;;0.50;;
28529;SDS011;15737;49.760;6.632;2023-05-07T03:41:39;1.20;;;0.50;;
28529;SDS011;15737;49.760;6.632;2023-05-07T03:44:05;0.33;;;0.33;;
28529;SDS011;15737;49.760;6.632;2023-05-07T03:46:30;1.03;;;0.97;;
28529;SDS011;15737;49.760;6.632;2023-05-07T03:48:57;1.50;;;1.17;;
28529;SDS011;15737;49.760;6.632;2023-05-07T03:51:23;5.00;;;1.70;;
28529;SDS011;15737;49.760;6.632;2023-05-07T03:53:48;1.10;;;1.00;;
28529;SDS011;15737;49.760;6.632;2023-05-07T03:56:14;0.83;;;0.83;;
28529;SDS011;15737;49.760;6.632;2023-05-07T03:58:40;0.73;;;0.73;;
28529;SDS011;15737;49.760;6.632;2023-05-07T04:01:05;0.47;;;0.40;;
28529;SDS011;15737;49.760;6.632;2023-05-07T04:03:32;0.77;;;0.77;;
28529;SDS011;15737;49.760;6.632;2023-05-07T04:05:57;0.83;;;0.83;;
28529;SDS011;15737;49.760;6.632;2023-05-07T04:08:23;1.00;;;1.00;;
28529;SDS011;15737;49.760;6.632;2023-05-07T04:10:53;0.70;;;0.70;;
28529;SDS011;15737;49.760;6.632;2023-05-07T04:13:20;1.33;;;1.03;;
28529;SDS011;15737;49.760;6.632;2023-05-07T04:15:45;0.80;;;0.80;;
28529;SDS011;15737;49.760;6.632;2023-05-07T04:18:11;0.77;;;0.77;;
28529;SDS011;15737;49.760;6.632;2023-05-07T04:20:36;0.77;;;0.77;;
28529;SDS011;15737;49.760;6.632;2023-05-07T04:23:02;0.50;;;0.50;;
28529;SDS011;15737;49.760;6.632;2023-05-07T04:25:28;0.60;;;0.60;;
28529;SDS011;15737;49.760;6.632;2023-05-07T04:27:53;0.83;;;0.83;;
28529;SDS011;15737;49.760;6.632;2023-05-07T04:30:19;0.67;;;0.67;;
28529;SDS011;15737;49.760;6.632;2023-05-07T04:32:44;0.70;;;0.70;;
28529;SDS011;15737;49.760;6.632;2023-05-07T04:35:10;1.13;;;1.03;;
28529;SDS011;15737;49.760;6.632;2023-05-07T04:37:35;0.90;;;0.90;;
28529;SDS011;15737;49.760;6.632;2023-05-07T04:40:01;0.80;;;0.80;;
28529;SDS011;15737;49.760;6.632;2023-05-07T04:42:27;0.87;;;0.87;;
28529;SDS011;15737;49.760;6.632;2023-05-07T04:44:53;0.63;;;0.63;;
28529;SDS011;15737;49.760;6.632;2023-05-07T04:47:19;0.70;;;0.70;;
28529;SDS011;15737;49.760;6.632;2023-05-07T04:49:45;0.70;;;0.70;;
28529;SDS011;15737;49.760;6.632;2023-05-07T04:52:11;1.13;;;0.90;;
28529;SDS011;15737;49.760;6.632;2023-05-07T04:54:36;0.80;;;0.80;;
28529;SDS011;15737;49.760;6.632;2023-05-07T04:57:03;0.90;;;0.90;;
28529;SDS011;15737;49.760;6.632;2023-05-07T04:59:29;0.70;;;0.70;;
28529;SDS011;15737;49.760;6.632;2023-05-07T05:01:55;0.80;;;0.80;;
28529;SDS011;15737;49.760;6.632;2023-05-07T05:04:20;0.67;;;0.67;;
28529;SDS011;15737;49.760;6.632;2023-05-07T05:06:46;0.63;;;0.63;;
28529;SDS011;15737;49.760;6.632;2023-05-07T05:09:11;0.70;;;0.70;;
28529;SDS011;15737;49.760;6.632;2023-05-07T05:11:37;1.10;;;1.00;;
28529;SDS011;15737;49.760;6.632;2023-05-07T05:14:03;1.23;;;1.13;;
28529;SDS011;15737;49.760;6.632;2023-05-07T05:16:29;0.90;;;0.90;;
28529;SDS011;15737;49.760;6.632;2023-05-07T05:18:54;1.03;;;0.73;;
28529;SDS011;15737;49.760;6.632;2023-05-07T05:21:20;0.70;;;0.70;;
28529;SDS011;15737;49.760;6.632;2023-05-07T05:23:46;0.90;;;0.90;;
28529;SDS011;15737;49.760;6.632;2023-05-07T05:26:12;0.73;;;0.60;;
28529;SDS011;15737;49.760;6.632;2023-05-07T05:28:38;0.60;;;0.60;;
28529;SDS011;15737;49.760;6.632;2023-05-07T05:31:04;1.00;;;0.97;;
28529;SDS011;15737;49.760;6.632;2023-05-07T05:33:29;1.20;;;1.10;;
28529;SDS011;15737;49.760;6.632;2023-05-07T05:35:55;1.00;;;1.00;;
28529;SDS011;15737;49.760;6.632;2023-05-07T05:38:21;1.03;;;0.77;;
28529;SDS011;15737;49.760;6.632;2023-05-07T05:40:46;1.17;;;1.07;;
28529;SDS011;15737;49.760;6.632;2023-05-07T05:43:13;0.80;;;0.80;;
28529;SDS011;15737;49.760;6.632;2023-05-07T05:45:39;2.53;;;2.33;;
28529;SDS011;15737;49.760;6.632;2023-05-07T05:48:04;1.20;;;1.20;;
28529;SDS011;15737;49.760;6.632;2023-05-07T05:50:30;6.63;;;1.73;;
28529;SDS011;15737;49.760;6.632;2023-05-07T05:52:56;1.50;;;1.40;;
28529;SDS011;15737;49.760;6.632;2023-05-07T05:55:22;1.50;;;1.40;;
28529;SDS011;15737;49.760;6.632;2023-05-07T05:57:48;1.10;;;1.00;;
28529;SDS011;15737;49.760;6.632;2023-05-07T06:00:15;1.33;;;1.17;;
28529;SDS011;15737;49.760;6.632;2023-05-07T06:02:41;1.60;;;1.50;;
28529;SDS011;15737;49.760;6.632;2023-05-07T06:05:07;1.47;;;1.37;;
28529;SDS011;15737;49.760;6.632;2023-05-07T06:07:33;1.43;;;1.33;;
28529;SDS011;15737;49.760;6.632;2023-05-07T06:09:59;1.17;;;1.17;;
28529;SDS011;15737;49.760;6.632;2023-05-07T06:12:25;1.03;;;1.03;;
28529;SDS011;15737;49.760;6.632;2023-05-07T06:14:51;5.47;;;1.80;;
28529;SDS011;15737;49.760;6.632;2023-05-07T06:17:17;2.20;;;1.73;;
28529;SDS011;15737;49.760;6.632;2023-05-07T06:19:43;2.87;;;2.77;;
28529;SDS011;15737;49.760;6.632;2023-05-07T06:22:08;5.67;;;5.37;;
28529;SDS011;15737;49.760;6.632;2023-05-07T06:24:34;6.33;;;6.00;;
28529;SDS011;15737;49.760;6.632;2023-05-07T06:27:00;12.50;;;11.93;;
28529;SDS011;15737;49.760;6.632;2023-05-07T06:29:25;28.27;;;26.97;;
28529;SDS011;15737;49.760;6.632;2023-05-07T06:31:52;24.83;;;23.77;;
28529;SDS011;15737;49.760;6.632;2023-05-07T06:34:18;31.77;;;30.43;;
28529;SDS011;15737;49.760;6.632;2023-05-07T06:36:43;96.23;;;91.90;;
28529;SDS011;15737;49.760;6.632;2023-05-07T06:39:08;165.60;;;157.90;;
28529;SDS011;15737;49.760;6.632;2023-05-07T06:41:34;170.30;;;161.67;;
28529;SDS011;15737;49.760;6.632;2023-05-07T06:44:00;150.60;;;143.13;;
28529;SDS011;15737;49.760;6.632;2023-05-07T06:46:27;164.85;;;156.90;;
28529;SDS011;15737;49.760;6.632;2023-05-07T06:48:53;99.88;;;95.18;;
28529;SDS011;15737;49.760;6.632;2023-05-07T06:51:19;45.38;;;43.33;;
28529;SDS011;15737;49.760;6.632;2023-05-07T06:53:44;1.45;;;1.35;;
28529;SDS011;15737;49.760;6.632;2023-05-07T06:56:13;4.25;;;4.05;;
28529;SDS011;15737;49.760;6.632;2023-05-07T06:58:38;36.38;;;34.83;;
28529;SDS011;15737;49.760;6.632;2023-05-07T07:01:04;29.63;;;28.17;;
28529;SDS011;15737;49.760;6.632;2023-05-07T07:03:29;2.80;;;2.65;;
28529;SDS011;15737;49.760;6.632;2023-05-07T07:05:55;0.95;;;0.95;;
28529;SDS011;15737;49.760;6.632;2023-05-07T07:08:21;1.75;;;1.13;;
28529;SDS011;15737;49.760;6.632;2023-05-07T07:10:47;0.95;;;0.95;;
28529;SDS011;15737;49.760;6.632;2023-05-07T07:13:13;1.20;;;1.10;;
28529;SDS011;15737;49.760;6.632;2023-05-07T07:15:38;2.63;;;1.27;;
28529;SDS011;15737;49.760;6.632;2023-05-07T07:18:05;1.50;;;1.40;;
28529;SDS011;15737;49.760;6.632;2023-05-07T07:20:30;1.13;;;1.05;;
28529;SDS011;15737;49.760;6.632;2023-05-07T07:22:56;1.23;;;1.13;;
28529;SDS011;15737;49.760;6.632;2023-05-07T07:25:21;1.45;;;1.35;;
28529;SDS011;15737;49.760;6.632;2023-05-07T07:27:47;3.15;;;1.30;;
28529;SDS011;15737;49.760;6.632;2023-05-07T07:30:12;1.40;;;1.30;;
28529;SDS011;15737;49.760;6.632;2023-05-07T07:32:38;1.15;;;1.00;;
28529;SDS011;15737;49.760;6.632;2023-05-07T07:35:03;1.27;;;1.17;;
28529;SDS011;15737;49.760;6.632;2023-05-07T07:37:29;1.50;;;1.30;;
28529;SDS011;15737;49.760;6.632;2023-05-07T07:39:55;1.30;;;1.20;;
28529;SDS011;15737;49.760;6.632;2023-05-07T07:42:21;2.05;;;1.17;;
28529;SDS011;15737;49.760;6.632;2023-05-07T07:44:46;1.17;;;1.17;;
28529;SDS011;15737;49.760;6.632;2023-05-07T07:47:12;1.60;;;1.50;;
28529;SDS011;15737;49.760;6.632;2023-05-07T07:49:37;1.58;;;1.48;;
28529;SDS011;15737;49.760;6.632;2023-05-07T07:52:03;2.92;;;1.05;;
28529;SDS011;15737;49.760;6.632;2023-05-07T07:54:28;1.08;;;1.00;;
28529;SDS011;15737;49.760;6.632;2023-05-07T07:56:54;2.97;;;1.40;;
28529;SDS011;15737;49.760;6.632;2023-05-07T07:59:20;1.30;;;1.20;;
28529;SDS011;15737;49.760;6.632;2023-05-07T08:01:45;1.33;;;1.23;;
28529;SDS011;15737;49.760;6.632;2023-05-07T08:04:13;1.20;;;1.20;;
28529;SDS011;15737;49.760;6.632;2023-05-07T08:06:38;1.20;;;1.00;;
28529;SDS011;15737;49.760;6.632;2023-05-07T08:09:04;1.30;;;1.20;;
28529;SDS011;15737;49.760;6.632;2023-05-07T08:11:29;1.27;;;1.17;;
28529;SDS011;15737;49.760;6.632;2023-05-07T08:13:55;1.40;;;1.30;;
28529;SDS011;15737;49.760;6.632;2023-05-07T08:16:21;1.30;;;1.20;;
28529;SDS011;15737;49.760;6.632;2023-05-07T08:18:46;1.58;;;1.40;;
28529;SDS011;15737;49.760;6.632;2023-05-07T08:21:12;0.80;;;0.80;;
28529;SDS011;15737;49.760;6.632;2023-05-07T08:23:37;3.53;;;1.20;;
28529;SDS011;15737;49.760;6.632;2023-05-07T08:26:03;1.17;;;0.90;;
28529;SDS011;15737;49.760;6.632;2023-05-07T08:28:29;1.08;;;0.98;;
28529;SDS011;15737;49.760;6.632;2023-05-07T08:30:54;1.27;;;0.90;;
28529;SDS011;15737;49.760;6.632;2023-05-07T08:33:21;0.95;;;0.93;;
28529;SDS011;15737;49.760;6.632;2023-05-07T08:35:47;1.20;;;1.08;;
28529;SDS011;15737;49.760;6.632;2023-05-07T08:38:14;1.20;;;1.02;;
28529;SDS011;15737;49.760;6.632;2023-05-07T08:40:39;1.00;;;1.00;;
28529;SDS011;15737;49.760;6.632;2023-05-07T08:43:08;0.90;;;0.90;;
28529;SDS011;15737;49.760;6.632;2023-05-07T08:45:34;0.93;;;0.93;;
28529;SDS011;15737;49.760;6.632;2023-05-07T08:48:02;0.93;;;0.93;;
28529;SDS011;15737;49.760;6.632;2023-05-07T08:50:30;0.90;;;0.90;;
28529;SDS011;15737;49.760;6.632;2023-05-07T08:52:56;0.90;;;0.90;;
28529;SDS011;15737;49.760;6.632;2023-05-07T08:55:22;0.95;;;0.88;;
28529;SDS011;15737;49.760;6.632;2023-05-07T08:57:48;1.00;;;0.90;;
28529;SDS011;15737;49.760;6.632;2023-05-07T09:00:15;1.08;;;0.75;;
28529;SDS011;15737;49.760;6.632;2023-05-07T09:02:40;0.90;;;0.90;;
28529;SDS011;15737;49.760;6.632;2023-05-07T09:05:06;1.13;;;1.02;;
28529;SDS011;15737;49.760;6.632;2023-05-07T09:07:32;2.13;;;1.13;;
28529;SDS011;15737;49.760;6.632;2023-05-07T09:09:58;1.00;;;1.00;;
28529;SDS011;15737;49.760;6.632;2023-05-07T09:12:25;0.90;;;0.90;;
28529;SDS011;15737;49.760;6.632;2023-05-07T09:14:51;1.05;;;1.00;;
28529;SDS011;15737;49.760;6.632;2023-05-07T09:17:16;1.67;;;1.25;;
28529;SDS011;15737;49.760;6.632;2023-05-07T09:19:43;1.02;;;0.90;;
28529;SDS011;15737;49.760;6.632;2023-05-07T09:22:10;1.98;;;1.20;;
28529;SDS011;15737;49.760;6.632;2023-05-07T09:24:36;0.93;;;0.93;;
28529;SDS011;15737;49.760;6.632;2023-05-07T09:27:03;1.02;;;1.00;;
28529;SDS011;15737;49.760;6.632;2023-05-07T09:29:29;1.00;;;1.00;;
28529;SDS011;15737;49.760;6.632;2023-05-07T09:32:00;0.90;;;0.90;;
28529;SDS011;15737;49.760;6.632;2023-05-07T09:34:29;1.20;;;1.10;;
28529;SDS011;15737;49.760;6.632;2023-05-07T09:36:55;3.55;;;1.20;;
28529;SDS011;15737;49.760;6.632;2023-05-07T09:39:21;0.63;;;0.63;;
28529;SDS011;15737;49.760;6.632;2023-05-07T09:41:48;0.90;;;0.90;;
28529;SDS011;15737;49.760;6.632;2023-05-07T09:44:19;1.35;;;0.70;;
28529;SDS011;15737;49.760;6.632;2023-05-07T09:46:45;0.98;;;0.98;;
28529;SDS011;15737;49.760;6.632;2023-05-07T09:49:20;1.00;;;1.00;;
28529;SDS011;15737;49.760;6.632;2023-05-07T09:51:48;1.30;;;1.20;;
28529;SDS011;15737;49.760;6.632;2023-05-07T09:54:15;0.93;;;0.90;;
28529;SDS011;15737;49.760;6.632;2023-05-07T09:56:42;0.93;;;0.93;;
28529;SDS011;15737;49.760;6.632;2023-05-07T09:59:10;0.80;;;0.80;;
28529;SDS011;15737;49.760;6.632;2023-05-07T10:01:38;1.00;;;0.80;;
28529;SDS011;15737;49.760;6.632;2023-05-07T10:04:07;1.20;;;1.10;;
28529;SDS011;15737;49.760;6.632;2023-05-07T10:06:35;1.25;;;1.15;;
28529;SDS011;15737;49.760;6.632;2023-05-07T10:09:02;1.13;;;1.10;;
28529;SDS011;15737;49.760;6.632;2023-05-07T10:11:30;0.88;;;0.88;;
28529;SDS011;15737;49.760;6.632;2023-05-07T10:14:01;1.60;;;0.90;;
28529;SDS011;15737;49.760;6.632;2023-05-07T10:16:31;0.70;;;0.70;;
28529;SDS011;15737;49.760;6.632;2023-05-07T10:19:02;0.80;;;0.70;;
28529;SDS011;15737;49.760;6.632;2023-05-07T10:21:28;2.03;;;0.90;;
28529;SDS011;15737;49.760;6.632;2023-05-07T10:23:58;0.95;;;0.90;;
28529;SDS011;15737;49.760;6.632;2023-05-07T10:26:35;1.20;;;0.95;;
28529;SDS011;15737;49.760;6.632;2023-05-07T10:34:45;0.80;;;0.80;;
28529;SDS011;15737;49.760;6.632;2023-05-07T10:37:14;0.90;;;0.90;;
28529;SDS011;15737;49.760;6.632;2023-05-07T10:39:43;1.55;;;1.00;;
28529;SDS011;15737;49.760;6.632;2023-05-07T10:42:09;0.60;;;0.60;;
28529;SDS011;15737;49.760;6.632;2023-05-07T10:44:35;1.35;;;1.00;;
28529;SDS011;15737;49.760;6.632;2023-05-07T10:47:09;0.80;;;0.80;;
28529;SDS011;15737;49.760;6.632;2023-05-07T10:49:36;0.95;;;0.90;;
28529;SDS011;15737;49.760;6.632;2023-05-07T10:52:23;0.90;;;0.90;;
28529;SDS011;15737;49.760;6.632;2023-05-07T10:57:46;0.80;;;0.80;;
28529;SDS011;15737;49.760;6.632;2023-05-07T11:05:29;1.20;;;1.10;;
28529;SDS011;15737;49.760;6.632;2023-05-07T11:08:00;0.82;;;0.82;;
28529;SDS011;15737;49.760;6.632;2023-05-07T11:12:56;0.73;;;0.73;;
28529;SDS011;15737;49.760;6.632;2023-05-07T11:15:38;2.80;;;0.90;;
28529;SDS011;15737;49.760;6.632;2023-05-07T11:18:06;1.00;;;1.00;;
28529;SDS011;15737;49.760;6.632;2023-05-07T11:20:46;0.90;;;0.90;;
28529;SDS011;15737;49.760;6.632;2023-05-07T11:26:02;1.17;;;1.02;;
28529;SDS011;15737;49.760;6.632;2023-05-07T11:28:29;1.05;;;0.95;;
28529;SDS011;15737;49.760;6.632;2023-05-07T11:30:56;1.20;;;1.10;;
28529;SDS011;15737;49.760;6.632;2023-05-07T11:33:22;1.65;;;1.30;;
28529;SDS011;15737;49.760;6.632;2023-05-07T11:35:50;1.30;;;1.15;;
28529;SDS011;15737;49.760;6.632;2023-05-07T11:38:18;1.77;;;1.10;;
28529;SDS011;15737;49.760;6.632;2023-05-07T11:40:54;1.48;;;0.90;;
28529;SDS011;15737;49.760;6.632;2023-05-07T11:43:25;1.95;;;1.30;;
28529;SDS011;15737;49.760;6.632;2023-05-07T11:45:51;1.27;;;0.93;;
28529;SDS011;15737;49.760;6.632;2023-05-07T11:48:17;1.02;;;1.02;;
28529;SDS011;15737;49.760;6.632;2023-05-07T11:50:53;0.98;;;0.95;;
28529;SDS011;15737;49.760;6.632;2023-05-07T11:53:26;0.88;;;0.88;;
28529;SDS011;15737;49.760;6.632;2023-05-07T11:55:52;0.98;;;0.98;;
28529;SDS011;15737;49.760;6.632;2023-05-07T11:58:21;1.25;;;1.20;;
28529;SDS011;15737;49.760;6.632;2023-05-07T12:00:49;1.50;;;1.40;;
28529;SDS011;15737;49.760;6.632;2023-05-07T12:03:16;1.00;;;1.00;;
28529;SDS011;15737;49.760;6.632;2023-05-07T12:05:42;2.15;;;1.30;;
28529;SDS011;15737;49.760;6.632;2023-05-07T12:08:10;0.98;;;0.88;;
28529;SDS011;15737;49.760;6.632;2023-05-07T12:10:43;1.02;;;1.02;;
28529;SDS011;15737;49.760;6.632;2023-05-07T12:13:20;1.30;;;1.20;;
28529;SDS011;15737;49.760;6.632;2023-05-07T12:15:50;1.15;;;1.10;;
28529;SDS011;15737;49.760;6.632;2023-05-07T12:18:17;1.10;;;1.10;;
28529;SDS011;15737;49.760;6.632;2023-05-07T12:20:43;2.42;;;1.00;;
28529;SDS011;15737;49.760;6.632;2023-05-07T12:23:10;3.67;;;1.45;;
28529;SDS011;15737;49.760;6.632;2023-05-07T12:25:36;1.25;;;1.25;;
28529;SDS011;15737;49.760;6.632;2023-05-07T12:28:12;1.05;;;1.05;;
28529;SDS011;15737;49.760;6.632;2023-05-07T12:30:39;0.80;;;0.80;;
28529;SDS011;15737;49.760;6.632;2023-05-07T12:33:05;0.77;;;0.77;;
28529;SDS011;15737;49.760;6.632;2023-05-07T12:35:32;1.00;;;0.90;;
28529;SDS011;15737;49.760;6.632;2023-05-07T12:38:08;2.25;;;1.08;;
28529;SDS011;15737;49.760;6.632;2023-05-07T12:40:39;0.93;;;0.90;;
28529;SDS011;15737;49.760;6.632;2023-05-07T12:45:40;0.90;;;0.90;;
28529;SDS011;15737;49.760;6.632;2023-05-07T12:48:06;1.23;;;0.90;;
28529;SDS011;15737;49.760;6.632;2023-05-07T12:50:35;0.90;;;0.90;;
28529;SDS011;15737;49.760;6.632;2023-05-07T12:53:00;2.22;;;1.05;;
28529;SDS011;15737;49.760;6.632;2023-05-07T12:55:31;1.10;;;1.05;;
28529;SDS011;15737;49.760;6.632;2023-05-07T12:57:57;1.35;;;1.00;;
28529;SDS011;15737;49.760;6.632;2023-05-07T13:00:33;1.00;;;1.00;;
28529;SDS011;15737;49.760;6.632;2023-05-07T13:02:59;1.00;;;1.00;;
28529;SDS011;15737;49.760;6.632;2023-05-07T13:05:25;0.90;;;0.90;;
28529;SDS011;15737;49.760;6.632;2023-05-07T13:07:56;1.52;;;1.33;;
28529;SDS011;15737;49.760;6.632;2023-05-07T13:10:22;2.15;;;1.30;;
28529;SDS011;15737;49.760;6.632;2023-05-07T13:12:49;0.95;;;0.88;;
28529;SDS011;15737;49.760;6.632;2023-05-07T13:15:15;1.00;;;1.00;;
28529;SDS011;15737;49.760;6.632;2023-05-07T13:17:40;0.85;;;0.85;;
28529;SDS011;15737;49.760;6.632;2023-05-07T13:20:06;0.93;;;0.90;;
28529;SDS011;15737;49.760;6.632;2023-05-07T13:22:34;0.75;;;0.75;;
28529;SDS011;15737;49.760;6.632;2023-05-07T13:24:59;1.00;;;1.00;;
28529;SDS011;15737;49.760;6.632;2023-05-07T13:27:25;0.93;;;0.93;;
28529;SDS011;15737;49.760;6.632;2023-05-07T13:29:50;1.00;;;1.00;;
28529;SDS011;15737;49.760;6.632;2023-05-07T13:32:16;0.82;;;0.82;;
28529;SDS011;15737;49.760;6.632;2023-05-07T13:34:42;0.95;;;0.82;;
28529;SDS011;15737;49.760;6.632;2023-05-07T13:37:07;1.40;;;1.30;;
28529;SDS011;15737;49.760;6.632;2023-05-07T13:39:33;0.90;;;0.90;;
28529;SDS011;15737;49.760;6.632;2023-05-07T13:41:58;1.35;;;1.23;;
28529;SDS011;15737;49.760;6.632;2023-05-07T13:44:24;1.42;;;1.00;;
28529;SDS011;15737;49.760;6.632;2023-05-07T13:46:50;0.88;;;0.88;;
28529;SDS011;15737;49.760;6.632;2023-05-07T13:49:16;1.25;;;0.90;;
28529;SDS011;15737;49.760;6.632;2023-05-07T13:51:41;0.80;;;0.80;;
28529;SDS011;15737;49.760;6.632;2023-05-07T13:54:07;0.80;;;0.80;;
28529;SDS011;15737;49.760;6.632;2023-05-07T13:56:32;0.80;;;0.80;;
28529;SDS011;15737;49.760;6.632;2023-05-07T13:58:58;1.08;;;1.08;;
28529;SDS011;15737;49.760;6.632;2023-05-07T14:01:24;0.80;;;0.80;;
28529;SDS011;15737;49.760;6.632;2023-05-07T14:03:49;1.00;;;1.00;;
28529;SDS011;15737;49.760;6.632;2023-05-07T14:06:15;1.90;;;1.02;;
28529;SDS011;15737;49.760;6.632;2023-05-07T14:08:40;0.80;;;0.80;;
28529;SDS011;15737;49.760;6.632;2023-05-07T14:11:06;2.15;;;1.08;;
28529;SDS011;15737;49.760;6.632;2023-05-07T14:13:31;1.60;;;0.95;;
28529;SDS011;15737;49.760;6.632;2023-05-07T14:15:57;1.63;;;1.00;;
28529;SDS011;15737;49.760;6.632;2023-05-07T14:18:23;0.60;;;0.60;;
28529;SDS011;15737;49.760;6.632;2023-05-07T14:20:48;0.80;;;0.80;;
28529;SDS011;15737;49.760;6.632;2023-05-07T14:23:14;0.60;;;0.60;;
28529;SDS011;15737;49.760;6.632;2023-05-07T14:25:40;0.75;;;0.75;;
28529;SDS011;15737;49.760;6.632;2023-05-07T14:28:06;0.82;;;0.82;;
28529;SDS011;15737;49.760;6.632;2023-05-07T14:30:31;0.77;;;0.77;;
28529;SDS011;15737;49.760;6.632;2023-05-07T14:32:57;1.52;;;1.02;;
28529;SDS011;15737;49.760;6.632;2023-05-07T14:35:22;0.73;;;0.73;;
28529;SDS011;15737;49.760;6.632;2023-05-07T14:37:48;1.42;;;1.00;;
28529;SDS011;15737;49.760;6.632;2023-05-07T14:40:13;1.33;;;1.23;;
28529;SDS011;15737;49.760;6.632;2023-05-07T14:42:39;1.25;;;0.88;;
28529;SDS011;15737;49.760;6.632;2023-05-07T14:45:05;2.45;;;1.00;;
28529;SDS011;15737;49.760;6.632;2023-05-07T14:47:31;1.30;;;1.20;;
28529;SDS011;15737;49.760;6.632;2023-05-07T14:49:57;0.80;;;0.80;;
28529;SDS011;15737;49.760;6.632;2023-05-07T14:52:23;1.30;;;1.20;;
28529;SDS011;15737;49.760;6.632;2023-05-07T14:54:48;0.90;;;0.90;;
28529;SDS011;15737;49.760;6.632;2023-05-07T14:57:14;0.95;;;0.85;;
28529;SDS011;15737;49.760;6.632;2023-05-07T14:59:41;1.00;;;1.00;;
28529;SDS011;15737;49.760;6.632;2023-05-07T15:02:07;3.08;;;1.13;;
28529;SDS011;15737;49.760;6.632;2023-05-07T15:04:33;0.80;;;0.80;;
28529;SDS011;15737;49.760;6.632;2023-05-07T15:06:59;1.35;;;1.25;;